Date,TemperatureHighF,TemperatureAvgF,TemperatureLowF,DewpointHighF,DewpointAvgF,DewpointLowF,HumidityHigh,HumidityAvg,HumidityLow,PressureMaxIn,PressureMinIn,WindSpeedMaxMPH,WindSpeedAvgMPH,GustSpeedMaxMPH,PrecipitationSumIn
2012-4-3,41,38,35,32,30,27,84,73,62,30.00,29.72,5,3,15,0.32
2012-4-4,48,40,26,33,28,22,86,61,51,30.30,30.02,13,3,13,0.00
2012-4-5,52,44,24,42,36,21,91,76,64,30.30,30.01,5,2,5,0.00
2012-4-6,54,49,41,49,45,38,91,86,79,30.10,29.81,4,1,5,0.06
2012-4-7,56,48,40,48,43,38,92,83,73,29.98,29.84,5,1,5,0.02
2012-4-8,55,49,43,47,43,38,89,82,73,29.87,29.32,8,3,8,0.00
2012-4-9,54,46,40,45,41,38,93,82,62,29.48,28.83,12,2,12,0.09
2012-4-10,56,45,38,42,39,36,94,79,56,29.28,28.83,6,2,6,0.47
2012-4-11,60,47,40,42,40,36,93,76,48,29.61,29.20,6,1,6,0.08
2012-4-12,55,46,38,42,37,31,90,73,56,29.75,29.58,8,1,8,0.06
2012-4-13,53,47,36,37,32,26,86,58,38,29.82,29.74,7,2,10,0.00
2012-4-14,52,45,38,33,29,24,73,55,37,30.11,29.82,9,2,9,0.00
2012-4-15,51,44,33,33,27,23,74,51,37,30.31,30.11,7,2,7,0.00
2012-4-16,55,45,32,38,33,26,88,65,39,30.31,29.72,15,2,15,0.09
2012-4-17,53,44,39,43,39,36,92,82,59,29.71,29.13,17,2,17,0.54
2012-4-18,55,47,41,44,40,37,87,76,59,29.22,29.11,9,2,9,0.05
2012-4-19,54,48,41,43,40,37,87,76,65,29.28,29.22,9,2,9,0.00
2012-4-20,53,46,39,45,42,36,93,85,70,29.32,29.24,4,0,4,0.14
2012-4-21,53,47,42,44,42,39,94,82,64,29.49,29.30,5,1,5,0.06
2012-4-22,55,48,37,43,41,35,93,77,62,29.57,29.48,7,1,7,0.00
2012-4-23,58,47,38,42,39,35,89,74,46,29.56,29.45,6,1,6,0.02
2012-4-24,58,48,41,45,39,36,89,73,55,29.55,29.48,9,1,9,0.03
2012-4-25,48,45,41,44,42,39,92,86,80,29.49,29.28,13,4,13,0.35
2012-4-26,52,47,43,44,40,34,88,75,66,29.71,29.29,12,4,12,0.04
2012-4-27,56,45,38,39,33,28,82,64,41,30.20,29.71,8,2,11,0.00
2012-4-28,54,46,36,38,33,29,82,62,46,30.33,30.20,9,2,9,0.00
2012-4-29,55,44,31,40,34,28,89,70,51,30.31,29.98,10,3,10,0.02
2012-4-30,52,48,41,45,43,37,87,83,77,30.31,29.99,12,3,12,0.09
2012-5-1,61,52,45,44,41,29,85,66,35,30.35,30.28,9,3,9,0.00
2012-5-2,62,52,43,48,43,38,87,74,57,30.35,30.22,10,2,10,0.00
2012-5-3,66,52,43,50,44,40,91,76,50,30.23,29.83,7,2,7,0.00
2012-5-4,53,46,33,43,31,23,91,57,39,29.96,29.83,10,3,10,0.01
2012-5-5,54,46,34,33,27,23,72,49,34,29.98,29.91,7,1,7,0.00
2012-5-6,54,45,35,38,35,32,87,68,47,30.00,29.94,10,1,10,0.00
2012-5-7,50,45,35,42,39,32,91,81,66,30.00,29.66,6,2,6,0.18
2012-5-8,57,49,40,46,41,35,94,74,57,29.67,29.57,7,2,7,0.01
2012-5-9,59,50,36,42,39,33,91,65,47,29.83,29.67,7,2,7,0.00
2012-5-10,47,44,42,43,40,36,89,84,71,29.83,29.69,9,3,9,0.30
2012-5-11,50,44,38,43,39,35,90,83,69,30.50,29.83,7,1,8,0.28
2012-5-12,60,50,37,42,39,33,89,67,44,30.61,30.47,8,2,8,0.00
2012-5-13,50,47,45,45,43,38,91,83,75,30.47,29.69,16,6,16,0.32
2012-5-14,55,48,40,46,41,37,88,76,56,29.81,29.68,12,3,12,0.06
2012-5-15,55,49,39,38,33,29,87,54,37,30.20,29.79,7,2,8,0.00
2012-5-16,54,46,36,42,36,31,89,69,50,30.22,30.14,6,2,6,0.02
2012-5-17,50,46,44,46,43,41,93,90,85,30.14,29.99,4,1,4,0.28
2012-5-18,49,44,41,43,39,37,90,84,75,30.00,29.91,8,2,12,0.03
2012-5-19,52,47,40,42,39,35,88,73,60,30.04,29.98,7,2,9,0.00
2012-5-20,64,52,32,46,41,30,94,69,45,30.03,29.89,8,2,8,0.00
2012-5-21,67,53,46,51,45,42,88,75,56,29.99,29.90,3,1,10,0.00
2012-5-22,78,63,44,59,52,42,92,70,47,30.20,29.99,6,1,6,0.00
2012-5-23,81,67,48,65,58,45,94,73,52,30.34,30.20,6,1,6,0.00
2012-5-24,80,68,54,67,60,52,93,76,63,30.42,30.33,8,2,8,0.00
2012-5-25,78,68,55,61,55,50,92,66,49,30.44,30.36,8,2,8,0.00
2012-5-26,76,67,54,56,50,43,83,56,42,30.41,30.27,8,2,8,0.00
2012-5-27,82,66,54,60,52,46,88,63,39,30.28,30.13,6,1,6,0.00
2012-5-28,78,66,55,61,54,48,84,67,48,30.13,30.03,9,2,9,0.00
2012-5-29,61,56,51,54,51,48,89,82,76,30.10,29.99,6,1,6,0.00
2012-5-30,58,55,51,52,50,47,92,85,79,30.06,30.03,5,1,5,0.03
2012-5-31,63,54,48,58,51,46,94,91,77,30.09,29.97,6,1,6,0.78
2012-6-1,67,57,48,51,47,42,93,69,48,30.16,30.07,9,2,9,0.00
2012-6-2,60,52,44,44,40,37,77,64,51,30.11,29.99,10,3,10,0.00
2012-6-3,56,51,44,42,39,36,87,65,53,30.03,29.93,9,2,9,0.01
2012-6-4,65,54,44,44,41,36,88,61,42,30.06,29.99,6,1,6,0.00
2012-6-5,67,57,43,49,44,37,85,64,39,29.99,29.63,7,1,7,0.00
2012-6-6,62,56,52,56,52,48,94,87,75,29.63,29.42,9,1,9,0.17
2012-6-7,62,56,51,55,52,49,95,87,74,29.49,29.30,9,3,9,0.10
2012-6-8,61,57,53,54,51,47,94,80,70,29.46,29.20,12,4,12,0.24
2012-6-9,64,60,55,55,50,46,81,72,61,29.66,29.46,6,1,6,0.02
2012-6-10,61,54,51,53,48,46,90,80,70,29.80,29.77,6,2,6,0.00
2012-6-11,58,52,48,49,46,45,89,80,65,29.86,29.78,4,1,4,0.09
2012-6-12,65,55,48,49,45,41,88,71,49,29.98,29.85,4,1,4,0.01
2012-6-13,66,56,49,47,43,40,85,63,42,30.08,29.98,5,2,5,0.00
2012-6-14,65,56,49,50,45,42,81,67,56,30.10,30.01,9,4,9,0.00
2012-6-15,52,49,48,47,45,43,92,86,79,30.01,29.62,12,4,12,0.16
2012-6-16,56,52,48,50,47,45,90,85,78,29.63,29.52,14,4,14,0.21
2012-6-17,58,52,46,52,49,44,94,88,78,30.00,29.63,5,0,5,0.19
2012-6-18,72,58,44,50,45,39,95,62,36,30.00,29.96,7,1,7,0.00
2012-6-19,66,59,47,52,48,42,87,67,51,30.07,29.96,7,1,7,0.00
2012-6-20,71,60,47,53,48,42,87,66,48,30.10,30.02,8,2,8,0.00
2012-6-21,56,55,53,53,51,47,94,88,77,30.02,29.52,12,4,12,0.28
2012-6-22,69,60,51,59,53,48,94,80,65,29.57,29.40,9,2,9,0.60
2012-6-23,57,54,50,52,50,47,95,84,76,29.80,29.57,8,1,8,0.25
2012-6-24,66,59,50,56,52,47,91,77,65,29.87,29.71,4,1,4,0.01
2012-6-25,68,61,50,54,51,47,87,69,58,30.09,29.86,5,1,5,0.00
2012-6-26,70,61,54,56,54,49,93,78,57,30.10,29.96,10,2,10,0.17
2012-6-27,64,59,55,58,56,53,94,90,79,29.97,29.86,4,1,4,0.19
2012-6-28,66,61,56,61,58,54,94,89,82,29.86,29.37,13,3,13,0.27
2012-6-29,61,58,57,58,56,54,94,91,83,29.38,29.24,12,2,12,0.72
2012-6-30,62,57,52,57,52,48,94,83,73,29.59,29.38,13,2,13,0.14
2012-7-1,67,62,52,57,53,49,94,73,63,29.71,29.59,5,0,5,0.01
2012-7-2,64,58,52,57,55,50,93,90,66,29.83,29.71,7,2,7,0.14
2012-7-3,66,63,57,61,58,55,94,85,72,29.82,29.75,7,1,7,0.10
2012-7-4,69,65,60,65,61,57,93,88,83,29.83,29.71,6,2,6,0.13
2012-7-5,75,67,60,65,61,58,92,81,68,29.93,29.83,9,2,9,0.00
2012-7-6,73,67,62,62,58,56,89,75,57,29.93,29.86,13,4,13,0.00
2012-7-7,65,57,54,58,54,52,94,91,76,29.88,29.82,12,2,12,0.69
2012-7-8,63,58,54,57,54,52,94,87,74,29.85,29.77,4,0,4,0.10
2012-7-9,59,56,54,56,53,50,95,92,86,29.88,29.81,4,1,4,0.20
2012-7-10,58,55,51,53,51,49,94,88,79,29.87,29.80,5,1,5,0.34
2012-7-11,57,54,51,53,51,49,94,90,84,29.82,29.76,4,0,4,0.35
2012-7-12,62,57,51,53,51,48,95,79,66,29.84,29.75,4,1,4,0.00
2012-7-13,58,55,51,51,49,47,88,81,71,29.75,29.64,5,1,5,0.01
2012-7-14,64,55,48,54,50,43,94,82,65,29.77,29.66,5,1,5,0.12
2012-7-15,60,56,47,53,50,43,89,81,73,29.92,29.77,8,1,8,0.00
2012-7-16,68,60,48,58,53,45,91,79,68,30.00,29.89,5,1,5,0.00
2012-7-17,63,58,50,56,52,46,93,81,69,30.09,29.91,5,0,5,0.03
2012-7-18,59,56,52,58,54,49,95,93,90,29.90,29.63,7,1,7,2.06
2012-7-19,68,59,52,50,48,42,90,68,45,29.96,29.72,5,1,5,0.00
2012-7-20,66,58,49,53,49,45,86,72,59,30.13,29.96,5,0,5,0.00
2012-7-21,66,59,46,53,51,44,93,74,62,30.21,30.13,4,1,4,0.00
2012-7-22,68,62,55,62,58,51,94,86,76,30.20,29.91,17,4,17,0.03
2012-7-23,63,60,54,60,58,53,95,92,83,30.01,29.91,9,0,4,0.53
2012-7-24,70,62,54,59,55,52,96,78,59,30.07,30.00,6,1,6,0.00
2012-7-25,73,64,54,56,53,50,93,69,50,30.18,30.07,5,1,5,0.02
2012-7-26,67,62,51,59,54,47,86,78,63,30.18,29.98,6,1,6,0.00
2012-7-27,67,58,50,54,50,46,86,73,57,29.98,29.77,17,2,17,0.00
2012-7-28,63,58,52,55,52,48,91,81,69,29.78,29.61,7,1,7,0.13
2012-7-29,65,57,49,54,50,46,92,78,62,29.77,29.64,10,1,10,0.02
2012-7-30,68,57,47,52,48,44,90,73,56,29.89,29.77,6,1,6,0.00
2012-7-31,71,60,46,52,48,44,95,68,44,29.91,29.77,8,2,8,0.15
2012-8-1,67,62,54,61,58,52,93,86,76,29.77,29.53,12,2,12,0.24
2012-8-2,73,63,51,57,54,48,95,73,52,29.76,29.58,7,1,7,0.00
2012-8-3,68,62,52,57,54,50,95,77,63,29.82,29.76,4,1,4,0.00
2012-8-4,74,66,56,61,57,54,94,74,57,29.82,29.74,7,2,7,0.00
2012-8-5,66,60,56,59,56,54,95,86,71,29.76,29.67,5,1,5,0.21
2012-8-6,72,61,55,60,56,53,96,84,63,29.85,29.68,6,1,6,0.29
2012-8-7,74,63,49,57,53,48,96,72,49,30.12,29.85,5,1,5,0.00
2012-8-8,77,63,50,56,52,47,96,69,40,30.25,30.12,7,1,7,0.00
2012-8-9,75,63,52,58,54,49,95,73,49,30.35,30.25,8,1,8,0.00
2012-8-10,77,66,55,59,56,53,92,71,50,30.38,30.31,7,2,7,0.00
2012-8-11,70,62,54,57,54,52,91,75,58,30.33,30.08,8,3,8,0.00
2012-8-12,71,65,59,60,57,54,88,78,66,30.07,29.85,9,4,9,0.00
2012-8-13,70,65,60,63,60,56,90,84,78,29.85,29.71,8,2,8,0.02
2012-8-14,71,64,58,63,60,55,94,86,70,29.89,29.76,7,1,7,0.37
2012-8-15,70,61,52,63,58,50,96,89,75,29.89,29.52,14,3,14,0.20
2012-8-16,68,62,57,63,56,54,92,81,63,29.88,29.59,12,2,12,0.13
2012-8-17,68,62,58,64,59,54,94,90,82,29.87,29.67,8,1,8,0.57
2012-8-18,74,65,56,65,60,53,95,83,57,29.98,29.72,12,1,12,0.06
2012-8-19,72,60,51,61,56,49,96,86,64,30.03,29.96,4,0,4,0.08
2012-8-20,73,62,54,62,57,52,96,85,62,30.03,29.97,9,1,9,0.01
2012-8-21,68,59,54,62,56,51,95,90,71,30.03,29.78,12,1,12,0.48
2012-8-22,69,59,54,57,54,52,95,84,61,29.84,29.76,13,1,13,0.03
2012-8-23,66,58,52,56,53,50,94,83,63,29.84,29.74,10,1,10,0.17
2012-8-24,65,58,53,57,54,52,95,87,70,29.74,29.58,4,0,4,0.07
2012-8-25,68,57,52,57,53,50,95,87,64,29.81,29.56,6,1,6,0.34
2012-8-26,62,55,51,52,49,46,94,79,60,29.99,29.81,6,1,6,0.04
2012-8-27,60,56,52,58,53,48,96,90,83,29.96,29.47,10,2,10,0.78
2012-8-28,66,58,53,54,52,48,96,79,56,29.76,29.50,23,4,23,0.02
2012-8-29,64,55,47,58,52,45,95,88,76,29.75,29.60,7,1,7,0.31
2012-8-30,63,53,44,49,43,38,96,69,45,30.35,29.75,8,2,8,0.01
2012-8-31,56,48,37,55,46,35,96,92,78,30.38,30.19,6,0,6,0.15
2012-9-1,66,59,56,58,56,54,96,90,71,30.19,29.95,12,2,12,0.02
2012-9-2,70,60,53,58,54,50,93,82,62,30.23,29.98,8,1,8,0.00
2012-9-3,74,62,58,61,56,53,93,82,61,30.23,30.01,12,2,12,0.04
2012-9-4,67,59,53,60,50,45,92,71,50,30.23,30.00,8,2,8,0.00
2012-9-5,68,56,47,53,48,43,90,76,52,30.38,30.23,4,1,4,0.00
2012-9-6,61,54,46,57,51,43,94,89,76,30.37,30.01,12,2,12,0.00
2012-9-7,68,61,57,62,58,55,96,89,75,30.13,30.05,6,1,6,0.08
2012-9-8,67,61,54,59,56,51,94,84,71,30.12,29.89,10,1,10,0.00
2012-9-9,63,57,46,58,53,44,95,88,74,29.89,29.48,10,1,10,0.04
2012-9-10,60,55,44,58,51,43,94,87,69,29.63,29.48,9,1,9,0.10
2012-9-11,60,49,41,48,43,40,96,83,55,29.79,29.62,7,1,7,0.02
2012-9-12,61,51,44,48,43,39,95,77,49,30.04,29.74,4,1,4,0.01
2012-9-13,59,52,43,55,48,39,91,87,78,30.05,29.52,22,3,22,0.00
2012-9-14,63,56,52,50,48,45,89,76,61,29.89,29.49,12,3,12,0.01
2012-9-15,63,56,51,52,49,45,85,78,64,29.90,29.74,12,2,12,0.00
2012-9-16,59,54,47,54,50,44,94,86,72,29.74,29.58,12,2,12,0.11
2012-9-17,59,49,42,52,46,41,96,91,71,29.66,29.57,14,1,14,0.68
2012-9-18,59,48,40,46,42,38,96,82,54,29.98,29.61,5,1,5,0.01
2012-9-19,60,48,37,47,42,35,95,81,57,30.06,29.98,5,1,5,0.00
2012-9-20,51,47,42,49,45,40,95,92,85,30.04,29.94,4,1,4,0.66
2012-9-21,60,48,38,44,40,35,94,76,49,30.13,30.01,4,1,4,0.00
2012-9-22,62,46,32,45,38,30,96,78,48,30.19,30.09,7,0,7,0.00
2012-9-23,51,40,35,45,38,33,95,91,77,30.09,29.97,4,0,4,0.00
2012-9-29,58,54,50,48,45,42,92,72,55,29.94,29.84,9,2,9,0.02
2012-9-30,62,56,50,55,50,47,94,82,63,29.84,29.61,10,2,10,0.57
2012-10-1,57,52,46,50,47,44,93,85,72,29.62,29.50,15,2,15,0.25
2012-10-2,56,50,46,50,46,44,94,88,77,29.55,29.29,12,2,12,0.17
2012-10-3,57,46,39,48,43,37,95,89,69,29.52,29.28,9,1,9,0.09
2012-10-4,57,44,34,49,41,32,97,90,68,29.64,29.52,7,0,7,0.03
2012-10-5,59,47,41,48,43,39,96,87,60,29.72,29.47,5,0,5,0.07
2012-10-6,58,47,39,48,43,38,96,87,60,29.89,29.71,5,1,5,0.01
2012-10-14,46,44,42,43,41,37,93,89,80,29.68,29.62,2,0,2,0.05
2012-10-15,55,42,31,41,35,30,96,79,50,29.62,29.39,8,0,8,0.00
2012-10-16,49,42,34,44,38,32,95,86,77,29.50,29.26,8,1,8,0.17
2012-10-17,47,41,30,45,39,29,96,93,87,29.51,29.30,8,2,8,0.81
2012-10-18,57,48,41,50,46,39,96,90,76,29.67,29.39,6,2,6,0.09
2012-10-19,51,48,47,48,45,43,95,89,82,29.79,29.67,8,2,8,0.11
2012-10-20,57,50,45,50,47,43,96,90,72,30.04,29.76,7,0,7,0.02
2012-10-21,63,50,40,52,46,38,96,88,66,30.26,30.04,4,0,4,0.00
2012-10-22,52,45,35,48,42,33,97,90,82,30.39,30.25,6,1,6,0.00
2012-10-23,55,52,49,51,49,46,93,90,84,30.42,30.37,7,1,7,0.00
2012-10-24,57,50,43,49,46,41,93,86,69,30.40,30.25,6,1,6,0.00
2012-10-25,57,46,38,44,39,30,95,80,56,30.27,30.17,10,1,10,0.00
2012-10-26,47,39,34,30,28,24,75,63,46,30.26,30.10,12,3,12,0.00
2012-10-27,45,38,31,40,31,26,93,76,60,30.25,29.94,15,1,15,0.02
2012-10-28,50,46,40,46,44,39,96,92,85,29.70,29.54,7,1,7,0.11
2012-10-29,50,42,35,43,38,32,97,86,66,29.79,29.63,4,1,4,0.06
2012-10-30,49,44,37,45,41,34,95,90,83,29.68,29.02,15,2,15,0.02
2012-10-31,47,42,36,44,40,34,96,93,88,29.01,28.78,13,2,13,0.44
2012-11-1,48,38,31,41,36,30,97,91,73,28.80,28.68,8,0,8,0.10
2012-11-2,48,41,32,42,37,30,95,87,69,29.19,28.68,14,2,14,0.32
2012-11-3,48,38,31,38,34,29,95,85,63,29.29,29.19,8,1,8,0.00
2012-11-4,49,40,33,41,36,32,95,87,74,29.63,29.28,4,1,4,0.01
2012-11-5,52,41,32,41,35,29,96,80,64,29.98,29.76,4,0,4,0.00
2012-11-6,54,47,35,49,43,32,95,87,78,30.03,29.87,10,2,10,0.06
2012-11-7,53,49,47,48,46,43,92,87,79,30.03,29.78,17,3,17,0.03
2012-11-8,52,48,45,45,43,41,91,84,71,29.91,29.70,15,2,15,0.00
2012-11-9,49,47,43,46,44,39,95,89,83,29.70,29.33,12,2,12,0.24
2012-11-10,45,38,35,42,37,34,96,94,85,29.48,29.27,4,0,4,0.05
2012-11-11,43,38,31,40,35,30,97,91,83,29.98,29.48,1,0,1,0.01
2012-11-12,54,47,42,53,46,39,97,95,88,29.91,29.83,17,1,17,0.04
2012-11-13,56,53,47,52,50,45,95,90,83,30.10,29.91,15,3,15,0.16
2012-11-14,49,46,37,47,45,36,96,95,93,30.24,30.09,1,0,1,0.13
2012-11-15,48,42,35,47,41,34,97,96,93,30.24,29.94,7,0,7,0.06
2012-11-16,48,44,43,46,42,41,95,91,85,29.94,29.68,8,1,8,0.04
2012-11-17,48,40,36,44,38,35,97,92,80,29.69,29.59,8,1,8,0.10
2012-11-18,45,39,32,41,36,30,96,91,83,29.81,29.65,9,1,9,0.05
2012-11-19,54,49,40,51,46,38,96,91,86,29.65,29.29,16,4,16,0.83
2012-11-20,57,50,45,53,46,40,95,86,71,29.57,29.33,21,3,21,0.01
2012-11-21,51,43,38,44,40,35,95,88,76,29.71,29.57,12,1,12,0.01
2012-11-22,52,46,42,48,43,39,93,89,82,29.62,29.27,21,3,21,0.84
2012-11-23,48,42,38,42,38,36,93,87,76,29.85,29.32,16,2,16,0.19
2012-11-24,42,37,31,38,35,30,96,91,85,29.97,29.66,6,1,6,0.01
2012-11-25,42,40,34,40,37,33,96,91,85,29.66,29.48,6,1,6,0.17
2012-11-26,45,43,35,37,36,34,94,77,71,29.84,29.64,13,4,13,0.00
2012-11-27,46,43,38,38,35,32,79,74,69,30.10,29.84,13,3,13,0.00
2012-11-28,46,38,33,34,30,28,82,73,58,30.13,30.09,8,1,8,0.00
2012-11-29,40,30,24,32,27,22,94,88,71,30.09,29.86,2,0,2,0.00
2012-11-30,43,32,25,35,30,23,95,90,73,29.91,29.85,2,0,2,0.24
2012-12-1,43,36,30,34,30,26,95,79,59,30.00,29.87,6,1,6,0.05
2012-12-2,45,34,29,33,29,26,92,82,63,30.00,29.78,4,0,4,0.00
2012-12-3,38,35,32,35,33,31,95,93,90,29.78,29.47,4,1,4,0.13
2012-12-4,38,33,26,35,30,25,96,91,77,29.75,29.48,5,1,7,0.02
2012-12-5,39,32,22,29,26,20,91,77,62,30.00,29.75,12,2,12,0.00
2012-12-6,38,33,23,35,31,20,96,92,82,29.96,29.26,12,1,12,0.28
2012-12-7,44,39,32,36,33,29,91,79,69,30.12,29.36,14,3,16,0.10
2012-12-8,46,38,28,44,36,26,95,92,86,30.18,29.91,6,1,6,0.05
2012-12-9,47,43,39,42,35,32,90,75,64,30.19,29.86,12,5,12,0.03
2012-12-10,45,37,27,33,30,24,91,75,61,30.49,30.19,9,2,9,0.00
2012-12-11,36,26,21,29,23,19,94,90,74,30.50,30.27,2,0,2,0.00
2012-12-12,30,26,21,27,24,19,95,93,91,30.27,29.85,5,0,5,0.00
2012-12-13,35,32,26,32,28,21,94,87,62,29.85,29.50,4,1,4,0.00
2012-12-14,43,38,32,40,34,24,94,87,72,29.50,28.66,7,3,7,0.41
2012-12-15,44,42,37,43,40,36,96,94,92,29.21,28.67,8,2,8,0.13
2012-12-16,47,44,42,43,41,40,93,90,83,29.35,29.21,5,1,5,0.00
2012-12-17,44,42,40,41,40,38,94,91,87,29.73,29.33,7,1,7,0.01
2012-12-18,44,42,40,41,40,38,95,90,86,30.13,29.76,5,1,6,0.00
2012-12-19,44,42,40,39,38,37,93,86,78,30.10,29.87,6,2,6,0.26
2012-12-20,42,41,40,40,39,38,93,91,89,29.87,29.60,10,3,10,1.19
2012-12-21,41,41,40,40,39,38,93,93,92,29.88,29.66,5,2,5,0.37
2012-12-22,44,43,41,43,41,39,95,93,90,29.84,29.21,5,2,8,0.73
2012-12-23,50,46,43,47,43,40,96,89,77,29.44,28.92,20,4,20,0.36
2012-12-24,46,44,41,43,42,40,96,93,88,29.45,29.18,9,1,9,0.30
2012-12-25,48,41,37,44,39,36,96,92,80,29.32,29.13,5,1,5,0.02
2012-12-26,42,39,37,39,37,35,96,91,86,29.48,29.31,9,1,9,0.17
2012-12-27,38,37,35,35,32,30,91,83,75,29.94,29.34,10,2,10,0.01
2012-12-28,55,47,37,50,44,34,97,90,83,29.91,29.20,18,4,18,0.51
2012-12-29,54,45,37,50,41,34,91,85,77,29.23,29.16,20,4,20,0.13
2012-12-30,49,40,27,47,37,25,96,90,81,29.35,29.21,9,3,12,0.42
2012-12-31,50,44,33,48,41,31,95,88,78,29.30,28.97,14,4,18,0.30
2013-1-1,45,39,33,40,36,32,95,89,79,29.93,29.30,8,1,8,0.08